createdAt,value
2022-08-28T00:00:39.768Z,5.40
2022-08-28T00:05:41.752Z,5.17
2022-08-28T00:10:43.528Z,4.80
2022-08-28T00:15:45.560Z,5.30
2022-08-28T00:20:47.663Z,4.93
2022-08-28T00:25:49.370Z,5.40
2022-08-28T00:30:52.549Z,5.13
2022-08-28T00:35:54.842Z,5.23
2022-08-28T00:40:59.890Z,5.03
2022-08-28T00:46:02.575Z,4.90
2022-08-28T00:51:23.220Z,5.03
2022-08-28T00:56:24.888Z,5.43
2022-08-28T01:01:26.558Z,5.03
2022-08-28T01:06:28.252Z,6.03
2022-08-28T01:11:29.917Z,5.70
2022-08-28T01:16:33.745Z,6.00
2022-08-28T01:21:49.437Z,5.87
2022-08-28T01:26:51.123Z,6.30
2022-08-28T01:31:52.791Z,6.30
2022-08-28T01:36:54.468Z,6.67
2022-08-28T01:41:56.234Z,6.40
2022-08-28T01:46:58.548Z,5.73
2022-08-28T01:52:00.672Z,6.17
2022-08-28T01:57:05.136Z,7.00
2022-08-28T02:02:06.894Z,6.93
2022-08-28T02:07:08.604Z,6.47
2022-08-28T02:12:10.358Z,7.20
2022-08-28T02:17:12.831Z,6.20
2022-08-28T02:22:14.520Z,6.47
2022-08-28T02:27:16.219Z,6.77
2022-08-28T02:32:18.535Z,6.00
2022-08-28T02:37:21.470Z,6.93
2022-08-28T02:42:23.160Z,7.07
2022-08-28T02:47:24.813Z,6.80
2022-08-28T02:52:26.972Z,6.13
2022-08-28T02:57:29.909Z,7.43
2022-08-28T03:02:31.804Z,6.23
2022-08-28T03:07:33.554Z,6.53
2022-08-28T03:12:35.481Z,6.90
2022-08-28T03:17:37.146Z,7.13
2022-08-28T03:22:57.261Z,7.10
2022-08-28T03:27:58.952Z,6.13
2022-08-28T03:33:01.128Z,7.20
2022-08-28T03:38:03.127Z,6.80
2022-08-28T03:43:04.818Z,7.03
2022-08-28T03:48:08.885Z,6.83
2022-08-28T03:53:11.068Z,6.67
2022-08-28T03:58:18.800Z,7.37
2022-08-28T04:03:21.450Z,6.90
2022-08-28T04:08:23.444Z,6.70
2022-08-28T04:13:25.187Z,6.70
2022-08-28T04:18:27.516Z,6.80
2022-08-28T04:23:29.719Z,7.20
2022-08-28T04:28:32.580Z,7.17
2022-08-28T04:33:34.344Z,7.30
2022-08-28T04:38:39.276Z,7.37
2022-08-28T04:43:44.774Z,7.00
2022-08-28T04:48:46.481Z,7.40
2022-08-28T04:53:48.157Z,7.20
2022-08-28T04:58:49.863Z,7.77
2022-08-28T05:03:57.711Z,7.43
2022-08-28T05:09:00.642Z,6.90
2022-08-28T05:14:04.433Z,6.90
2022-08-28T05:19:06.356Z,6.20
2022-08-28T05:24:08.791Z,7.33
2022-08-28T05:29:10.540Z,6.97
2022-08-28T05:34:12.208Z,8.00
2022-08-28T05:39:13.887Z,7.50
2022-08-28T05:44:16.350Z,7.13
2022-08-28T05:49:18.946Z,6.93
2022-08-28T05:54:20.612Z,7.20
2022-08-28T05:59:22.285Z,7.40
2022-08-28T06:04:26.657Z,6.67
2022-08-28T06:09:29.921Z,6.93
2022-08-28T06:14:31.928Z,6.47
2022-08-28T06:19:37.199Z,6.60
2022-08-28T06:24:41.109Z,6.17
2022-08-28T06:29:44.617Z,6.30
2022-08-28T06:34:46.276Z,6.17
2022-08-28T06:39:47.940Z,6.23
2022-08-28T06:44:49.613Z,6.37
2022-08-28T06:49:51.309Z,5.77
2022-08-28T06:54:55.444Z,5.20
2022-08-28T06:59:57.868Z,5.03
2022-08-28T07:05:00.387Z,5.80
2022-08-28T07:10:02.066Z,5.10
2022-08-28T07:15:04.884Z,4.70
2022-08-28T07:20:07.246Z,4.43
2022-08-28T07:25:09.341Z,4.87
2022-08-28T07:30:13.108Z,4.70
2022-08-28T07:35:16.157Z,5.67
2022-08-28T07:40:20.109Z,5.17
2022-08-28T07:45:21.903Z,4.87
2022-08-28T07:50:23.614Z,5.73
2022-08-28T07:55:27.544Z,4.83
2022-08-28T08:00:30.142Z,5.13
2022-08-28T08:05:31.821Z,4.43
2022-08-28T08:10:34.283Z,4.43
2022-08-28T08:15:36.130Z,3.90
2022-08-28T08:20:38.417Z,4.77
2022-08-28T08:25:40.132Z,3.83
2022-08-28T08:30:41.823Z,4.40
2022-08-28T08:35:43.552Z,4.40
2022-08-28T08:40:45.531Z,4.13
2022-08-28T08:45:47.283Z,4.50
2022-08-28T08:50:48.961Z,4.10
2022-08-28T08:55:52.140Z,4.23
2022-08-28T09:00:58.661Z,4.30
2022-08-28T09:06:02.256Z,3.90
2022-08-28T09:11:19.677Z,4.17
2022-08-28T09:16:28.892Z,4.40
2022-08-28T09:21:35.163Z,3.70
2022-08-28T09:26:36.854Z,4.20
2022-08-28T09:31:39.238Z,3.40
2022-08-28T09:36:40.908Z,3.70
2022-08-28T09:42:32.670Z,3.80
2022-08-28T09:47:56.785Z,3.50
2022-08-28T09:53:09.086Z,4.07
2022-08-28T09:58:10.761Z,3.77
2022-08-28T10:03:31.435Z,3.60
2022-08-28T10:08:50.580Z,4.20
2022-08-28T10:14:28.622Z,3.50
2022-08-28T10:19:59.468Z,3.77
2022-08-28T10:25:28.902Z,3.87
2022-08-28T10:30:30.825Z,3.60
2022-08-28T10:35:52.092Z,4.00
2022-08-28T10:41:03.329Z,3.80
2022-08-28T10:46:08.674Z,3.73
2022-08-28T10:51:35.415Z,3.43
2022-08-28T10:56:56.671Z,4.00
2022-08-28T11:01:58.563Z,2.93
2022-08-28T11:07:03.535Z,4.00
2022-08-28T11:12:07.456Z,4.00
2022-08-28T11:17:33.438Z,3.30
2022-08-28T11:22:55.255Z,2.90
2022-08-28T11:28:36.897Z,3.70
2022-08-28T11:33:40.705Z,3.60
2022-08-28T11:38:42.224Z,4.20
2022-08-28T11:43:44.927Z,3.60
2022-08-28T11:48:51.689Z,4.17
2022-08-28T11:54:13.609Z,3.13
2022-08-28T11:59:35.618Z,3.57
2022-08-28T12:04:41.761Z,3.90
2022-08-28T12:09:45.144Z,3.20
2022-08-28T12:14:46.641Z,3.20
2022-08-28T12:20:10.778Z,3.40
2022-08-28T12:25:24.512Z,3.43
2022-08-28T12:30:44.242Z,4.23
2022-08-28T12:35:46.105Z,2.80
2022-08-28T12:40:53.417Z,4.00
2022-08-28T12:45:56.333Z,3.50
2022-08-28T12:51:05.805Z,3.10
2022-08-28T12:56:11.491Z,3.20
2022-08-28T13:01:32.505Z,2.90
2022-08-28T13:06:36.530Z,3.93
2022-08-28T13:11:38.656Z,2.90
2022-08-28T13:16:42.144Z,2.77
2022-08-28T13:21:46.548Z,2.67
2022-08-28T13:26:49.330Z,2.67
2022-08-28T13:32:00.760Z,2.70
2022-08-28T13:37:20.245Z,2.50
2022-08-28T13:42:22.547Z,3.83
2022-08-28T13:47:25.298Z,2.90
2022-08-28T13:52:27.164Z,2.97
2022-08-28T13:57:28.940Z,2.87
2022-08-28T14:02:48.934Z,3.60
2022-08-28T14:07:51.004Z,2.53
2022-08-28T14:12:52.703Z,2.50
2022-08-28T14:17:54.405Z,3.30
2022-08-28T14:22:56.127Z,2.60
2022-08-28T14:27:57.856Z,3.00
2022-08-28T14:32:59.538Z,2.30
2022-08-28T14:38:02.414Z,10.20
2022-08-28T14:43:05.496Z,3.50
2022-08-28T14:48:07.250Z,4.30
2022-08-28T14:53:09.670Z,6.80
2022-08-28T14:58:11.616Z,6.60
2022-08-28T15:03:13.762Z,6.47
2022-08-28T15:08:16.241Z,4.10
2022-08-28T15:13:17.909Z,7.50
2022-08-28T15:18:23.827Z,4.10
2022-08-28T15:23:25.516Z,3.83
2022-08-28T15:28:27.185Z,4.40
2022-08-28T15:33:28.840Z,3.03
2022-08-28T15:38:53.334Z,3.90
2022-08-28T15:44:00.306Z,7.17
2022-08-28T15:49:03.916Z,5.10
2022-08-28T15:54:10.337Z,4.20
2022-08-28T15:59:12.214Z,5.23
2022-08-28T16:04:15.008Z,4.33
2022-08-28T16:09:16.674Z,4.13
2022-08-28T16:14:21.034Z,3.20
2022-08-28T16:19:22.873Z,3.60
2022-08-28T16:24:24.542Z,4.17
2022-08-28T16:29:26.310Z,3.80
2022-08-28T16:34:31.351Z,4.07
2022-08-28T16:39:33.336Z,4.30
2022-08-28T16:44:35.183Z,4.50
2022-08-28T16:49:36.849Z,5.50
2022-08-28T16:54:38.537Z,4.67
2022-08-28T16:59:52.977Z,4.40
2022-08-28T17:04:55.299Z,5.07
2022-08-28T17:09:56.968Z,5.37
2022-08-28T17:14:58.616Z,5.00
2022-08-28T17:20:00.288Z,12.77
2022-08-28T17:25:07.652Z,5.77
2022-08-28T17:30:10.957Z,4.93
2022-08-28T17:35:12.721Z,5.70
2022-08-28T17:40:15.697Z,6.10
2022-08-28T17:45:17.473Z,6.27
2022-08-28T17:50:19.251Z,5.67
2022-08-28T17:55:21.080Z,5.93
2022-08-28T18:00:22.972Z,6.00
2022-08-28T18:05:24.740Z,6.67
2022-08-28T18:10:27.633Z,7.00
2022-08-28T18:15:29.328Z,6.43
2022-08-28T18:20:31.026Z,10.27
2022-08-28T18:25:41.693Z,8.33
2022-08-28T18:30:46.030Z,7.50
2022-08-28T18:35:49.411Z,8.73
2022-08-28T18:40:53.427Z,10.20
2022-08-28T18:45:55.508Z,10.27
2022-08-28T18:50:57.437Z,7.03
2022-08-28T18:55:59.139Z,7.87
2022-08-28T19:01:04.423Z,7.13
2022-08-28T19:06:06.507Z,7.10
2022-08-28T19:11:09.488Z,6.70
2022-08-28T19:16:16.998Z,6.00
2022-08-28T19:21:19.804Z,6.37
2022-08-28T19:26:21.527Z,6.80
2022-08-28T19:31:24.305Z,10.77
2022-08-28T19:36:27.423Z,7.53
2022-08-28T19:41:29.817Z,6.23
2022-08-28T19:46:31.635Z,6.90
2022-08-28T19:51:34.649Z,7.10
2022-08-28T19:56:37.281Z,6.70
2022-08-28T20:01:41.433Z,6.40
2022-08-28T20:06:44.050Z,6.37
2022-08-28T20:11:46.879Z,6.20
2022-08-28T20:16:50.775Z,6.73
2022-08-28T20:21:52.608Z,6.10
2022-08-28T20:26:54.312Z,6.63
2022-08-28T20:31:55.968Z,6.00
2022-08-28T20:36:57.632Z,5.97
2022-08-28T20:41:59.319Z,5.83
2022-08-28T20:47:01.315Z,5.50
2022-08-28T20:52:03.108Z,6.23
2022-08-28T20:57:07.786Z,6.27
2022-08-28T21:02:11.599Z,6.23
2022-08-28T21:07:14.173Z,6.30
2022-08-28T21:12:16.589Z,6.60
2022-08-28T21:17:28.712Z,6.60
2022-08-28T21:22:32.939Z,6.70
2022-08-28T21:27:36.444Z,6.07
2022-08-28T21:32:38.149Z,6.90
2022-08-28T21:37:40.890Z,6.67
2022-08-28T21:42:42.657Z,6.23
2022-08-28T21:47:44.386Z,6.50
2022-08-28T21:52:46.064Z,6.30
2022-08-28T21:57:47.721Z,5.87
2022-08-28T22:02:49.963Z,6.10
2022-08-28T22:07:51.902Z,6.37
2022-08-28T22:12:53.571Z,6.00
2022-08-28T22:17:55.241Z,6.10
2022-08-28T22:23:11.750Z,5.77
2022-08-28T22:28:14.239Z,5.93
2022-08-28T22:33:16.044Z,5.67
2022-08-28T22:38:18.536Z,6.30
2022-08-28T22:43:20.350Z,5.60
2022-08-28T22:48:22.006Z,6.23
2022-08-28T22:53:23.662Z,6.00
2022-08-28T22:58:25.359Z,6.10
2022-08-28T23:03:27.252Z,6.60
2022-08-28T23:08:33.733Z,5.40
2022-08-28T23:13:35.763Z,5.97
2022-08-28T23:19:03.969Z,6.40
2022-08-28T23:23:59.326Z,6.10
2022-08-28T23:29:01.030Z,5.87
2022-08-28T23:34:02.959Z,6.00
2022-08-28T23:39:06.632Z,5.60
2022-08-28T23:44:09.173Z,6.27
2022-08-28T23:49:11.506Z,6.20
2022-08-28T23:54:13.172Z,6.60
2022-08-28T23:59:14.827Z,5.93
